createdAt,value
2023-05-01T00:01:26.060Z,5.28
2023-05-01T00:06:28.237Z,5.28
2023-05-01T00:11:29.888Z,4.68
2023-05-01T00:16:31.580Z,5.80
2023-05-01T00:21:33.246Z,2.92
2023-05-01T00:26:34.853Z,3.25
2023-05-01T00:31:36.769Z,6.97
2023-05-01T00:36:38.688Z,4.93
2023-05-01T00:41:40.647Z,3.17
2023-05-01T00:46:43.708Z,3.17
2023-05-01T00:51:49.445Z,2.75
2023-05-01T00:56:52.399Z,3.17
2023-05-01T01:01:56.325Z,2.67
2023-05-01T01:07:12.032Z,2.03
2023-05-01T01:12:29.831Z,2.28
2023-05-01T01:17:56.223Z,3.75
2023-05-01T01:23:36.772Z,6.60
2023-05-01T01:29:23.428Z,1.77
2023-05-01T01:34:35.417Z,2.38
2023-05-01T01:40:01.328Z,5.25
2023-05-01T01:45:10.861Z,1.55
2023-05-01T01:50:15.080Z,1.42
2023-05-01T01:55:21.588Z,3.08
2023-05-01T02:00:23.815Z,2.42
2023-05-01T02:05:26.724Z,2.35
2023-05-01T02:10:30.116Z,7.15
2023-05-01T02:15:34.063Z,4.90
2023-05-01T02:20:37.881Z,4.72
2023-05-01T02:25:40.007Z,6.10
2023-05-01T02:30:41.782Z,2.70
2023-05-01T02:35:44.534Z,3.40
2023-05-01T02:40:53.408Z,2.58
2023-05-01T02:45:56.789Z,1.88
2023-05-01T02:51:01.299Z,2.83
2023-05-01T02:56:04.959Z,3.28
2023-05-01T03:01:07.102Z,2.97
2023-05-01T03:06:09.087Z,3.03
2023-05-01T03:11:10.801Z,1.63
2023-05-01T03:16:12.482Z,1.90
2023-05-01T03:21:14.170Z,1.35
2023-05-01T03:26:15.811Z,1.55
2023-05-01T03:31:17.628Z,1.40
2023-05-01T03:36:19.609Z,2.20
2023-05-01T03:41:23.590Z,2.60
2023-05-01T03:46:52.948Z,2.33
2023-05-01T03:51:58.868Z,2.45
2023-05-01T03:57:01.408Z,1.75
2023-05-01T04:02:03.399Z,1.95
2023-05-01T04:07:07.702Z,1.30
2023-05-01T04:12:09.677Z,4.28
2023-05-01T04:17:11.630Z,4.38
2023-05-01T04:22:13.481Z,2.10
2023-05-01T04:27:16.296Z,2.42
2023-05-01T04:32:17.949Z,2.20
2023-05-01T04:37:19.650Z,3.10
2023-05-01T04:42:21.400Z,1.48
2023-05-01T04:47:23.082Z,1.60
2023-05-01T04:52:24.790Z,2.92
2023-05-01T04:57:31.752Z,2.92
2023-05-01T05:02:34.526Z,4.88
2023-05-01T05:07:36.336Z,2.08
2023-05-01T05:12:56.952Z,2.92
2023-05-01T05:17:58.648Z,2.08
2023-05-01T05:23:00.498Z,6.78
2023-05-01T05:28:02.217Z,2.40
2023-05-01T05:33:05.343Z,5.63
2023-05-01T05:38:07.153Z,2.28
2023-05-01T05:43:11.960Z,2.90
2023-05-01T05:48:14.397Z,1.83
2023-05-01T05:53:16.447Z,1.13
2023-05-01T05:58:22.607Z,1.55
2023-05-01T06:03:24.985Z,2.05
2023-05-01T06:08:29.911Z,2.90
2023-05-01T06:13:33.006Z,3.05
2023-05-01T06:18:34.647Z,4.35
2023-05-01T06:23:36.303Z,3.22
2023-05-01T06:28:55.926Z,4.10
2023-05-01T06:33:58.199Z,3.67
2023-05-01T06:39:07.172Z,4.30
2023-05-01T06:44:08.847Z,3.38
2023-05-01T06:49:12.634Z,3.35
2023-05-01T06:54:14.318Z,5.63
2023-05-01T06:59:15.947Z,3.67
2023-05-01T07:04:17.621Z,3.78
2023-05-01T07:09:19.562Z,2.15
2023-05-01T07:14:21.179Z,3.95
2023-05-01T07:19:22.891Z,6.60
2023-05-01T07:24:24.603Z,2.60
2023-05-01T07:29:26.213Z,2.92
2023-05-01T07:34:27.832Z,2.08
2023-05-01T07:39:29.443Z,2.10
2023-05-01T07:44:31.066Z,2.30
2023-05-01T07:49:37.603Z,1.98
2023-05-01T07:54:39.228Z,3.30
2023-05-01T07:59:40.841Z,7.68
2023-05-01T08:04:42.846Z,1.33
2023-05-01T08:09:44.559Z,2.88
2023-05-01T08:14:46.342Z,1.70
2023-05-01T08:19:47.960Z,2.22
2023-05-01T08:24:50.736Z,1.52
2023-05-01T08:29:52.361Z,1.85
2023-05-01T08:34:54.836Z,4.90
2023-05-01T08:39:56.748Z,1.30
2023-05-01T08:45:00.207Z,2.03
2023-05-01T08:50:03.529Z,1.85
2023-05-01T08:55:07.952Z,3.63
2023-05-01T09:00:14.102Z,2.63
2023-05-01T09:05:17.243Z,3.17
2023-05-01T09:10:19.451Z,1.48
2023-05-01T09:15:21.615Z,5.07
2023-05-01T09:20:24.363Z,1.63
2023-05-01T09:25:26.308Z,1.55
2023-05-01T09:30:36.698Z,1.40
2023-05-01T09:35:54.665Z,1.52
2023-05-01T09:41:04.266Z,3.70
2023-05-01T09:46:10.969Z,1.42
2023-05-01T09:51:29.902Z,1.45
2023-05-01T09:56:33.255Z,2.50
2023-05-01T10:01:43.510Z,4.18
2023-05-01T10:06:45.400Z,1.20
2023-05-01T10:11:55.703Z,2.35
2023-05-01T10:16:58.180Z,3.35
2023-05-01T10:22:00.193Z,3.08
2023-05-01T10:27:04.803Z,4.65
2023-05-01T10:32:08.495Z,2.17
2023-05-01T10:37:18.280Z,2.30
2023-05-01T10:42:19.900Z,3.47
2023-05-01T10:47:24.486Z,1.65
2023-05-01T10:52:26.342Z,3.10
2023-05-01T10:57:43.787Z,1.55
2023-05-01T11:02:45.577Z,3.50
2023-05-01T11:07:48.205Z,1.35
2023-05-01T11:12:53.822Z,2.03
2023-05-01T11:17:56.140Z,1.88
2023-05-01T11:22:58.741Z,1.52
2023-05-01T11:28:02.230Z,1.77
2023-05-01T11:33:04.486Z,2.70
2023-05-01T11:38:06.164Z,1.15
2023-05-01T11:43:09.020Z,1.10
2023-05-01T11:48:16.891Z,13.43
2023-05-01T11:53:18.773Z,1.45
2023-05-01T11:58:32.619Z,0.88
2023-05-01T12:03:43.998Z,2.03
2023-05-01T12:08:51.184Z,1.73
2023-05-01T12:13:53.364Z,2.05
2023-05-01T12:18:55.581Z,2.92
2023-05-01T12:23:59.942Z,0.98
2023-05-01T12:29:04.419Z,5.13
2023-05-01T12:34:07.675Z,6.90
2023-05-01T12:39:14.232Z,1.25
2023-05-01T12:44:22.791Z,1.50
2023-05-01T12:49:24.854Z,1.17
2023-05-01T12:54:40.431Z,1.85
2023-05-01T12:59:46.932Z,0.80
2023-05-01T13:04:49.986Z,0.57
2023-05-01T13:09:53.364Z,1.35
2023-05-01T13:14:55.297Z,0.95
2023-05-01T13:20:05.107Z,2.83
2023-05-01T13:25:18.060Z,1.08
2023-05-01T13:30:22.096Z,4.05
2023-05-01T13:35:25.037Z,0.50
2023-05-01T13:40:27.878Z,0.73
2023-05-01T13:45:29.844Z,1.73
2023-05-01T13:50:31.654Z,0.80
2023-05-01T13:55:33.483Z,0.65
2023-05-01T14:00:35.164Z,0.68
2023-05-01T14:05:36.822Z,1.00
2023-05-01T14:10:38.641Z,2.53
2023-05-01T14:15:43.923Z,0.57
2023-05-01T14:20:47.474Z,0.75
2023-05-01T14:25:49.397Z,0.60
2023-05-01T14:30:51.443Z,0.60
2023-05-01T14:35:53.913Z,1.02
2023-05-01T14:40:55.610Z,0.95
2023-05-01T14:45:57.311Z,0.85
2023-05-01T14:50:59.504Z,0.80
2023-05-01T14:56:01.330Z,0.65
2023-05-01T15:01:03.424Z,1.00
2023-05-01T15:06:05.390Z,1.02
2023-05-01T15:11:07.732Z,1.23
2023-05-01T15:16:10.979Z,0.52
2023-05-01T15:21:12.762Z,0.80
2023-05-01T15:26:14.418Z,1.25
2023-05-01T15:31:16.200Z,1.48
2023-05-01T15:36:18.232Z,1.10
2023-05-01T15:41:19.950Z,0.70
2023-05-01T15:46:23.487Z,2.88
2023-05-01T15:51:26.007Z,0.80
2023-05-01T15:56:27.709Z,1.25
2023-05-01T16:01:31.545Z,0.80
2023-05-01T16:06:35.179Z,1.27
2023-05-01T16:11:36.851Z,1.10
2023-05-01T16:16:41.680Z,2.13
2023-05-01T16:21:43.566Z,1.77
2023-05-01T16:26:45.253Z,3.28
2023-05-01T16:31:49.795Z,1.58
2023-05-01T16:36:51.478Z,1.60
2023-05-01T16:41:54.807Z,0.73
2023-05-01T16:46:58.711Z,1.73
2023-05-01T16:52:02.543Z,1.98
2023-05-01T16:57:05.842Z,1.17
2023-05-01T17:02:07.936Z,1.67
2023-05-01T17:07:09.742Z,1.73
2023-05-01T17:12:11.389Z,1.20
2023-05-01T17:17:13.409Z,2.53
2023-05-01T17:22:15.168Z,1.90
2023-05-01T17:27:16.787Z,1.88
2023-05-01T17:32:29.546Z,1.92
2023-05-01T17:37:39.917Z,1.52
2023-05-01T17:42:41.970Z,1.30
2023-05-01T17:47:45.105Z,1.55
2023-05-01T17:52:46.766Z,1.27
2023-05-01T17:57:48.537Z,2.25
2023-05-01T18:02:50.184Z,1.83
2023-05-01T18:07:51.854Z,4.32
2023-05-01T18:12:53.557Z,1.90
2023-05-01T18:17:55.402Z,0.90
2023-05-01T18:22:57.061Z,3.95
2023-05-01T18:27:58.828Z,6.55
2023-05-01T18:33:00.693Z,1.33
2023-05-01T18:38:02.321Z,1.88
2023-05-01T18:43:03.937Z,1.70
2023-05-01T18:48:05.840Z,1.23
2023-05-01T18:53:07.625Z,1.17
2023-05-01T18:58:09.243Z,4.82
2023-05-01T19:03:13.324Z,1.10
2023-05-01T19:08:15.111Z,1.63
2023-05-01T19:13:16.814Z,4.15
2023-05-01T19:18:18.477Z,3.70
2023-05-01T19:23:20.114Z,7.18
2023-05-01T19:28:21.715Z,4.60
2023-05-01T19:33:23.499Z,3.72
2023-05-01T19:38:25.486Z,3.53
2023-05-01T19:43:27.105Z,3.97
2023-05-01T19:48:28.718Z,4.53
2023-05-01T19:53:31.187Z,5.80
2023-05-01T19:58:32.788Z,5.75
2023-05-01T20:03:34.515Z,7.53
2023-05-01T20:08:36.170Z,8.88
2023-05-01T20:13:37.882Z,11.38
2023-05-01T20:18:39.554Z,5.28
2023-05-01T20:23:41.204Z,4.03
2023-05-01T20:28:43.074Z,7.38
2023-05-01T20:33:44.746Z,6.07
2023-05-01T20:38:47.707Z,6.32
2023-05-01T20:43:49.380Z,10.20
2023-05-01T20:48:51.827Z,6.15
2023-05-01T20:53:53.590Z,7.60
2023-05-01T20:58:55.184Z,9.25
2023-05-01T21:03:58.871Z,7.55
2023-05-01T21:09:01.078Z,7.35
2023-05-01T21:14:02.978Z,8.75
2023-05-01T21:19:04.641Z,6.15
2023-05-01T21:24:08.164Z,6.30
2023-05-01T21:29:09.869Z,9.82
2023-05-01T21:34:11.760Z,10.93
2023-05-01T21:39:13.615Z,6.65
2023-05-01T21:44:15.695Z,6.13
2023-05-01T21:49:23.027Z,7.85
2023-05-01T21:54:24.785Z,9.80
2023-05-01T21:59:40.687Z,10.63
2023-05-01T22:04:42.325Z,6.70
2023-05-01T22:09:44.019Z,8.75
2023-05-01T22:14:47.695Z,11.27
2023-05-01T22:19:51.596Z,6.85
2023-05-01T22:24:53.217Z,9.95
2023-05-01T22:29:54.813Z,9.90
2023-05-01T22:34:56.594Z,11.35
2023-05-01T22:39:58.460Z,12.10
2023-05-01T22:45:00.293Z,7.45
2023-05-01T22:50:02.278Z,7.80
2023-05-01T22:55:04.643Z,10.07
2023-05-01T23:00:08.064Z,10.57
2023-05-01T23:05:10.462Z,12.75
2023-05-01T23:10:12.460Z,8.65
2023-05-01T23:15:18.529Z,8.57
2023-05-01T23:20:25.220Z,9.05
2023-05-01T23:25:26.966Z,7.55
2023-05-01T23:30:28.605Z,8.88
2023-05-01T23:35:30.302Z,11.82
2023-05-01T23:40:31.993Z,11.77
2023-05-01T23:45:33.839Z,10.18
2023-05-01T23:50:35.945Z,11.07
2023-05-01T23:55:43.603Z,8.60
